sensor_id;sensor_type;location;lat;lon;timestamp;temperature;humidity
12870;DHT22;6503;48.572;13.460;2022-10-30T00:00:36;11.00;99.90
12870;DHT22;6503;48.572;13.460;2022-10-30T00:03:03;11.00;99.90
12870;DHT22;6503;48.572;13.460;2022-10-30T00:05:30;10.90;99.90
12870;DHT22;6503;48.572;13.460;2022-10-30T00:07:57;10.90;99.90
12870;DHT22;6503;48.572;13.460;2022-10-30T00:10:24;10.90;99.90
12870;DHT22;6503;48.572;13.460;2022-10-30T00:12:51;10.90;99.90
12870;DHT22;6503;48.572;13.460;2022-10-30T00:15:18;10.90;99.90
12870;DHT22;6503;48.572;13.460;2022-10-30T00:17:46;10.90;99.90
12870;DHT22;6503;48.572;13.460;2022-10-30T00:20:13;11.00;99.90
12870;DHT22;6503;48.572;13.460;2022-10-30T00:22:40;10.80;99.90
12870;DHT22;6503;48.572;13.460;2022-10-30T00:25:07;10.80;99.90
12870;DHT22;6503;48.572;13.460;2022-10-30T00:27:34;10.90;99.90
12870;DHT22;6503;48.572;13.460;2022-10-30T00:30:01;10.90;99.90
12870;DHT22;6503;48.572;13.460;2022-10-30T00:32:28;10.80;99.90
12870;DHT22;6503;48.572;13.460;2022-10-30T00:34:56;10.80;99.90
12870;DHT22;6503;48.572;13.460;2022-10-30T00:37:23;10.90;99.90
12870;DHT22;6503;48.572;13.460;2022-10-30T00:39:50;10.90;99.90
12870;DHT22;6503;48.572;13.460;2022-10-30T00:42:17;11.00;99.90
12870;DHT22;6503;48.572;13.460;2022-10-30T00:44:47;11.00;99.90
12870;DHT22;6503;48.572;13.460;2022-10-30T00:47:17;11.00;99.90
12870;DHT22;6503;48.572;13.460;2022-10-30T00:49:56;11.00;99.90
12870;DHT22;6503;48.572;13.460;2022-10-30T00:52:27;11.00;99.90
12870;DHT22;6503;48.572;13.460;2022-10-30T00:54:55;11.00;99.90
12870;DHT22;6503;48.572;13.460;2022-10-30T00:57:24;11.00;99.90
12870;DHT22;6503;48.572;13.460;2022-10-30T00:59:52;11.00;99.90
12870;DHT22;6503;48.572;13.460;2022-10-30T01:02:20;11.00;99.90
12870;DHT22;6503;48.572;13.460;2022-10-30T01:04:48;10.90;99.90
12870;DHT22;6503;48.572;13.460;2022-10-30T01:07:17;11.00;99.90
12870;DHT22;6503;48.572;13.460;2022-10-30T01:09:45;10.90;99.90
12870;DHT22;6503;48.572;13.460;2022-10-30T01:12:12;11.00;99.90
12870;DHT22;6503;48.572;13.460;2022-10-30T01:14:43;10.90;99.90
12870;DHT22;6503;48.572;13.460;2022-10-30T01:17:28;10.90;99.90
12870;DHT22;6503;48.572;13.460;2022-10-30T01:20:04;10.90;99.90
12870;DHT22;6503;48.572;13.460;2022-10-30T01:22:53;10.90;99.90
12870;DHT22;6503;48.572;13.460;2022-10-30T01:25:42;10.90;99.90
12870;DHT22;6503;48.572;13.460;2022-10-30T01:28:27;10.90;99.90
12870;DHT22;6503;48.572;13.460;2022-10-30T01:31:12;10.90;99.90
12870;DHT22;6503;48.572;13.460;2022-10-30T01:33:44;10.80;99.90
12870;DHT22;6503;48.572;13.460;2022-10-30T01:36:20;10.70;99.90
12870;DHT22;6503;48.572;13.460;2022-10-30T01:38:55;10.70;99.90
12870;DHT22;6503;48.572;13.460;2022-10-30T01:41:24;10.60;99.90
12870;DHT22;6503;48.572;13.460;2022-10-30T01:43:55;10.60;99.90
12870;DHT22;6503;48.572;13.460;2022-10-30T01:46:37;10.80;99.90
12870;DHT22;6503;48.572;13.460;2022-10-30T01:49:21;10.80;99.90
12870;DHT22;6503;48.572;13.460;2022-10-30T01:52:09;10.80;99.90
12870;DHT22;6503;48.572;13.460;2022-10-30T01:54:47;10.70;99.90
12870;DHT22;6503;48.572;13.460;2022-10-30T01:57:30;10.60;99.90
12870;DHT22;6503;48.572;13.460;2022-10-30T02:00:04;10.60;99.90
12870;DHT22;6503;48.572;13.460;2022-10-30T02:02:32;10.60;99.90
12870;DHT22;6503;48.572;13.460;2022-10-30T02:05:05;10.70;99.90
12870;DHT22;6503;48.572;13.460;2022-10-30T02:07:34;10.60;99.90
12870;DHT22;6503;48.572;13.460;2022-10-30T02:10:03;10.60;99.90
12870;DHT22;6503;48.572;13.460;2022-10-30T02:12:31;10.50;99.90
12870;DHT22;6503;48.572;13.460;2022-10-30T02:14:59;10.50;99.90
12870;DHT22;6503;48.572;13.460;2022-10-30T02:17:27;10.60;99.90
12870;DHT22;6503;48.572;13.460;2022-10-30T02:19:55;10.60;99.90
12870;DHT22;6503;48.572;13.460;2022-10-30T02:22:30;10.60;99.90
12870;DHT22;6503;48.572;13.460;2022-10-30T02:24:59;10.50;99.90
12870;DHT22;6503;48.572;13.460;2022-10-30T02:27:26;10.50;99.90
12870;DHT22;6503;48.572;13.460;2022-10-30T02:29:53;10.40;99.90
12870;DHT22;6503;48.572;13.460;2022-10-30T02:32:20;10.40;99.90
12870;DHT22;6503;48.572;13.460;2022-10-30T02:34:47;10.40;99.90
12870;DHT22;6503;48.572;13.460;2022-10-30T02:37:14;10.40;99.90
12870;DHT22;6503;48.572;13.460;2022-10-30T02:39:42;10.40;99.90
12870;DHT22;6503;48.572;13.460;2022-10-30T02:42:10;10.40;99.90
12870;DHT22;6503;48.572;13.460;2022-10-30T02:44:53;10.40;99.90
12870;DHT22;6503;48.572;13.460;2022-10-30T02:47:24;10.50;99.90
12870;DHT22;6503;48.572;13.460;2022-10-30T02:49:54;10.40;99.90
12870;DHT22;6503;48.572;13.460;2022-10-30T02:52:21;10.50;99.90
12870;DHT22;6503;48.572;13.460;2022-10-30T02:54:52;10.50;99.90
12870;DHT22;6503;48.572;13.460;2022-10-30T02:57:19;10.50;99.90
12870;DHT22;6503;48.572;13.460;2022-10-30T02:59:46;10.50;99.90
12870;DHT22;6503;48.572;13.460;2022-10-30T03:02:14;10.50;99.90
12870;DHT22;6503;48.572;13.460;2022-10-30T03:04:42;10.50;99.90
12870;DHT22;6503;48.572;13.460;2022-10-30T03:07:12;10.50;99.90
12870;DHT22;6503;48.572;13.460;2022-10-30T03:09:44;10.50;99.90
12870;DHT22;6503;48.572;13.460;2022-10-30T03:12:13;10.60;99.90
12870;DHT22;6503;48.572;13.460;2022-10-30T03:14:42;10.60;99.90
12870;DHT22;6503;48.572;13.460;2022-10-30T03:17:09;10.60;99.90
12870;DHT22;6503;48.572;13.460;2022-10-30T03:19:37;10.60;99.90
12870;DHT22;6503;48.572;13.460;2022-10-30T03:22:08;10.60;99.90
12870;DHT22;6503;48.572;13.460;2022-10-30T03:24:36;10.60;99.90
12870;DHT22;6503;48.572;13.460;2022-10-30T03:27:05;10.60;99.90
12870;DHT22;6503;48.572;13.460;2022-10-30T03:29:34;10.60;99.90
12870;DHT22;6503;48.572;13.460;2022-10-30T03:32:02;10.60;99.90
12870;DHT22;6503;48.572;13.460;2022-10-30T03:34:30;10.60;99.90
12870;DHT22;6503;48.572;13.460;2022-10-30T03:37:01;10.50;99.90
12870;DHT22;6503;48.572;13.460;2022-10-30T03:39:28;10.50;99.90
12870;DHT22;6503;48.572;13.460;2022-10-30T03:41:55;10.50;99.90
12870;DHT22;6503;48.572;13.460;2022-10-30T03:44:23;10.50;99.90
12870;DHT22;6503;48.572;13.460;2022-10-30T03:46:52;10.50;99.90
12870;DHT22;6503;48.572;13.460;2022-10-30T03:49:19;10.40;99.90
12870;DHT22;6503;48.572;13.460;2022-10-30T03:51:47;10.40;99.90
12870;DHT22;6503;48.572;13.460;2022-10-30T03:54:15;10.50;99.90
12870;DHT22;6503;48.572;13.460;2022-10-30T03:56:44;10.40;99.90
12870;DHT22;6503;48.572;13.460;2022-10-30T03:59:11;10.30;99.90
12870;DHT22;6503;48.572;13.460;2022-10-30T04:01:38;10.40;99.90
12870;DHT22;6503;48.572;13.460;2022-10-30T04:04:15;10.40;99.90
12870;DHT22;6503;48.572;13.460;2022-10-30T04:06:43;10.30;99.90
12870;DHT22;6503;48.572;13.460;2022-10-30T04:09:10;10.30;99.90
12870;DHT22;6503;48.572;13.460;2022-10-30T04:11:40;10.30;99.90
12870;DHT22;6503;48.572;13.460;2022-10-30T04:14:07;10.20;99.90
12870;DHT22;6503;48.572;13.460;2022-10-30T04:16:36;10.10;99.90
12870;DHT22;6503;48.572;13.460;2022-10-30T04:19:03;10.00;99.90
12870;DHT22;6503;48.572;13.460;2022-10-30T04:21:34;10.00;99.90
12870;DHT22;6503;48.572;13.460;2022-10-30T04:24:01;10.10;99.90
12870;DHT22;6503;48.572;13.460;2022-10-30T04:26:27;10.10;99.90
12870;DHT22;6503;48.572;13.460;2022-10-30T04:28:57;10.00;99.90
12870;DHT22;6503;48.572;13.460;2022-10-30T04:31:27;9.90;99.90
12870;DHT22;6503;48.572;13.460;2022-10-30T04:33:54;9.90;99.90
12870;DHT22;6503;48.572;13.460;2022-10-30T04:36:26;9.90;99.90
12870;DHT22;6503;48.572;13.460;2022-10-30T04:38:58;9.90;99.90
12870;DHT22;6503;48.572;13.460;2022-10-30T04:41:26;10.00;99.90
12870;DHT22;6503;48.572;13.460;2022-10-30T04:43:57;10.00;99.90
12870;DHT22;6503;48.572;13.460;2022-10-30T04:46:26;10.00;99.90
12870;DHT22;6503;48.572;13.460;2022-10-30T04:48:55;9.90;99.90
12870;DHT22;6503;48.572;13.460;2022-10-30T04:51:23;9.70;99.90
12870;DHT22;6503;48.572;13.460;2022-10-30T04:53:50;9.60;99.90
12870;DHT22;6503;48.572;13.460;2022-10-30T04:56:21;9.60;99.90
12870;DHT22;6503;48.572;13.460;2022-10-30T04:58:49;9.60;99.90
12870;DHT22;6503;48.572;13.460;2022-10-30T05:01:18;9.60;99.90
12870;DHT22;6503;48.572;13.460;2022-10-30T05:03:45;9.60;99.90
12870;DHT22;6503;48.572;13.460;2022-10-30T05:06:18;9.50;99.90
12870;DHT22;6503;48.572;13.460;2022-10-30T05:08:47;9.60;99.90
12870;DHT22;6503;48.572;13.460;2022-10-30T05:11:14;9.60;99.90
12870;DHT22;6503;48.572;13.460;2022-10-30T05:13:45;9.60;99.90
12870;DHT22;6503;48.572;13.460;2022-10-30T05:16:15;9.60;99.90
12870;DHT22;6503;48.572;13.460;2022-10-30T05:18:42;9.60;99.90
12870;DHT22;6503;48.572;13.460;2022-10-30T05:21:12;9.40;99.90
12870;DHT22;6503;48.572;13.460;2022-10-30T05:23:39;9.30;99.90
12870;DHT22;6503;48.572;13.460;2022-10-30T05:26:08;9.30;99.90
12870;DHT22;6503;48.572;13.460;2022-10-30T05:28:38;9.20;99.90
12870;DHT22;6503;48.572;13.460;2022-10-30T05:31:08;9.20;99.90
12870;DHT22;6503;48.572;13.460;2022-10-30T05:33:35;9.30;99.90
12870;DHT22;6503;48.572;13.460;2022-10-30T05:36:02;9.40;99.90
12870;DHT22;6503;48.572;13.460;2022-10-30T05:38:29;9.50;99.90
12870;DHT22;6503;48.572;13.460;2022-10-30T05:40:56;9.50;99.90
12870;DHT22;6503;48.572;13.460;2022-10-30T05:43:26;9.50;99.90
12870;DHT22;6503;48.572;13.460;2022-10-30T05:45:53;9.50;99.90
12870;DHT22;6503;48.572;13.460;2022-10-30T05:48:21;9.60;99.90
12870;DHT22;6503;48.572;13.460;2022-10-30T05:50:48;9.60;99.90
12870;DHT22;6503;48.572;13.460;2022-10-30T05:53:15;9.60;99.90
12870;DHT22;6503;48.572;13.460;2022-10-30T05:55:42;9.60;99.90
12870;DHT22;6503;48.572;13.460;2022-10-30T05:58:09;9.50;99.90
12870;DHT22;6503;48.572;13.460;2022-10-30T06:00:36;9.40;99.90
12870;DHT22;6503;48.572;13.460;2022-10-30T06:03:06;9.40;99.90
12870;DHT22;6503;48.572;13.460;2022-10-30T06:05:36;9.40;99.90
12870;DHT22;6503;48.572;13.460;2022-10-30T06:08:05;9.40;99.90
12870;DHT22;6503;48.572;13.460;2022-10-30T06:10:32;9.40;99.90
12870;DHT22;6503;48.572;13.460;2022-10-30T06:13:00;9.30;99.90
12870;DHT22;6503;48.572;13.460;2022-10-30T06:15:30;9.40;99.90
12870;DHT22;6503;48.572;13.460;2022-10-30T06:17:58;9.40;99.90
12870;DHT22;6503;48.572;13.460;2022-10-30T06:20:28;9.50;99.90
12870;DHT22;6503;48.572;13.460;2022-10-30T06:22:59;9.50;99.90
12870;DHT22;6503;48.572;13.460;2022-10-30T06:25:27;9.40;99.90
12870;DHT22;6503;48.572;13.460;2022-10-30T06:27:55;9.40;99.90
12870;DHT22;6503;48.572;13.460;2022-10-30T06:30:28;9.40;99.90
12870;DHT22;6503;48.572;13.460;2022-10-30T06:32:56;9.50;99.90
12870;DHT22;6503;48.572;13.460;2022-10-30T06:35:24;9.50;99.90
12870;DHT22;6503;48.572;13.460;2022-10-30T06:37:53;9.50;99.90
12870;DHT22;6503;48.572;13.460;2022-10-30T06:40:22;9.50;99.90
12870;DHT22;6503;48.572;13.460;2022-10-30T06:42:50;9.50;99.90
12870;DHT22;6503;48.572;13.460;2022-10-30T06:45:19;9.50;99.90
12870;DHT22;6503;48.572;13.460;2022-10-30T06:47:46;9.50;99.90
12870;DHT22;6503;48.572;13.460;2022-10-30T06:50:15;9.50;99.90
12870;DHT22;6503;48.572;13.460;2022-10-30T06:52:42;9.50;99.90
12870;DHT22;6503;48.572;13.460;2022-10-30T06:55:11;9.60;99.90
12870;DHT22;6503;48.572;13.460;2022-10-30T06:57:40;9.60;99.90
12870;DHT22;6503;48.572;13.460;2022-10-30T07:00:08;9.70;99.90
12870;DHT22;6503;48.572;13.460;2022-10-30T07:02:36;9.70;99.90
12870;DHT22;6503;48.572;13.460;2022-10-30T07:05:06;9.80;99.90
12870;DHT22;6503;48.572;13.460;2022-10-30T07:07:33;9.80;99.90
12870;DHT22;6503;48.572;13.460;2022-10-30T07:10:00;9.90;99.90
12870;DHT22;6503;48.572;13.460;2022-10-30T07:12:27;9.90;99.90
12870;DHT22;6503;48.572;13.460;2022-10-30T07:14:55;10.00;99.90
12870;DHT22;6503;48.572;13.460;2022-10-30T07:17:23;10.00;99.90
12870;DHT22;6503;48.572;13.460;2022-10-30T07:19:51;10.00;99.90
12870;DHT22;6503;48.572;13.460;2022-10-30T07:22:19;10.10;99.90
12870;DHT22;6503;48.572;13.460;2022-10-30T07:24:46;10.20;99.90
12870;DHT22;6503;48.572;13.460;2022-10-30T07:27:13;10.20;99.90
12870;DHT22;6503;48.572;13.460;2022-10-30T07:29:40;10.30;99.90
12870;DHT22;6503;48.572;13.460;2022-10-30T07:32:11;10.30;99.90
12870;DHT22;6503;48.572;13.460;2022-10-30T07:34:40;10.30;99.90
12870;DHT22;6503;48.572;13.460;2022-10-30T07:37:07;10.50;99.90
12870;DHT22;6503;48.572;13.460;2022-10-30T07:39:35;10.40;99.90
12870;DHT22;6503;48.572;13.460;2022-10-30T07:42:02;10.30;99.90
12870;DHT22;6503;48.572;13.460;2022-10-30T07:44:30;10.20;99.90
12870;DHT22;6503;48.572;13.460;2022-10-30T07:46:57;10.20;99.90
12870;DHT22;6503;48.572;13.460;2022-10-30T07:49:26;10.40;99.90
12870;DHT22;6503;48.572;13.460;2022-10-30T07:51:53;10.50;99.90
12870;DHT22;6503;48.572;13.460;2022-10-30T07:54:20;10.70;99.90
12870;DHT22;6503;48.572;13.460;2022-10-30T07:56:47;10.80;99.90
12870;DHT22;6503;48.572;13.460;2022-10-30T07:59:14;11.00;99.90
12870;DHT22;6503;48.572;13.460;2022-10-30T08:01:41;11.10;99.90
12870;DHT22;6503;48.572;13.460;2022-10-30T08:04:07;11.20;99.90
12870;DHT22;6503;48.572;13.460;2022-10-30T08:06:37;11.40;99.90
12870;DHT22;6503;48.572;13.460;2022-10-30T08:09:04;11.40;99.90
12870;DHT22;6503;48.572;13.460;2022-10-30T08:11:30;11.50;99.90
12870;DHT22;6503;48.572;13.460;2022-10-30T08:13:57;11.60;99.90
12870;DHT22;6503;48.572;13.460;2022-10-30T08:16:24;11.70;99.90
12870;DHT22;6503;48.572;13.460;2022-10-30T08:18:51;11.70;99.90
12870;DHT22;6503;48.572;13.460;2022-10-30T08:21:18;11.80;99.90
12870;DHT22;6503;48.572;13.460;2022-10-30T08:23:47;11.80;99.90
12870;DHT22;6503;48.572;13.460;2022-10-30T08:26:13;11.90;99.90
12870;DHT22;6503;48.572;13.460;2022-10-30T08:28:40;12.00;99.90
12870;DHT22;6503;48.572;13.460;2022-10-30T08:31:07;12.10;99.90
12870;DHT22;6503;48.572;13.460;2022-10-30T08:33:34;12.20;99.90
12870;DHT22;6503;48.572;13.460;2022-10-30T08:36:03;12.30;99.90
12870;DHT22;6503;48.572;13.460;2022-10-30T08:38:31;12.40;99.90
12870;DHT22;6503;48.572;13.460;2022-10-30T08:41:01;12.50;99.90
12870;DHT22;6503;48.572;13.460;2022-10-30T08:43:29;12.50;99.90
12870;DHT22;6503;48.572;13.460;2022-10-30T08:45:56;12.70;99.90
12870;DHT22;6503;48.572;13.460;2022-10-30T08:48:23;12.80;99.90
12870;DHT22;6503;48.572;13.460;2022-10-30T08:50:50;12.90;99.90
12870;DHT22;6503;48.572;13.460;2022-10-30T08:53:17;12.90;99.90
12870;DHT22;6503;48.572;13.460;2022-10-30T08:55:44;13.00;99.90
12870;DHT22;6503;48.572;13.460;2022-10-30T08:58:13;13.10;99.90
12870;DHT22;6503;48.572;13.460;2022-10-30T09:00:40;13.20;99.90
12870;DHT22;6503;48.572;13.460;2022-10-30T09:03:06;13.30;99.90
12870;DHT22;6503;48.572;13.460;2022-10-30T09:05:35;13.50;99.90
12870;DHT22;6503;48.572;13.460;2022-10-30T09:08:03;13.70;99.90
12870;DHT22;6503;48.572;13.460;2022-10-30T09:10:30;13.90;99.90
12870;DHT22;6503;48.572;13.460;2022-10-30T09:12:58;14.00;99.90
12870;DHT22;6503;48.572;13.460;2022-10-30T09:15:29;14.10;99.90
12870;DHT22;6503;48.572;13.460;2022-10-30T09:18:44;14.30;99.90
12870;DHT22;6503;48.572;13.460;2022-10-30T09:25:32;14.60;99.90
12870;DHT22;6503;48.572;13.460;2022-10-30T09:38:32;14.80;99.90
12870;DHT22;6503;48.572;13.460;2022-10-30T09:41:35;14.90;99.90
12870;DHT22;6503;48.572;13.460;2022-10-30T09:44:55;15.00;99.90
12870;DHT22;6503;48.572;13.460;2022-10-30T10:05:09;15.90;99.90
12870;DHT22;6503;48.572;13.460;2022-10-30T10:08:45;16.00;99.90
12870;DHT22;6503;48.572;13.460;2022-10-30T10:19:08;16.30;99.90
12870;DHT22;6503;48.572;13.460;2022-10-30T10:33:20;17.00;99.90
12870;DHT22;6503;48.572;13.460;2022-10-30T10:36:43;17.20;99.90
12870;DHT22;6503;48.572;13.460;2022-10-30T10:39:50;17.30;99.90
12870;DHT22;6503;48.572;13.460;2022-10-30T10:42:54;17.50;99.90
12870;DHT22;6503;48.572;13.460;2022-10-30T10:46:08;17.60;99.90
12870;DHT22;6503;48.572;13.460;2022-10-30T11:12:40;18.30;99.90
12870;DHT22;6503;48.572;13.460;2022-10-30T11:16:11;18.40;99.90
12870;DHT22;6503;48.572;13.460;2022-10-30T11:22:17;18.80;99.90
12870;DHT22;6503;48.572;13.460;2022-10-30T11:25:56;18.90;99.90
12870;DHT22;6503;48.572;13.460;2022-10-30T11:29:12;18.80;99.90
12870;DHT22;6503;48.572;13.460;2022-10-30T11:39:09;18.90;99.90
12870;DHT22;6503;48.572;13.460;2022-10-30T11:42:18;19.00;99.90
12870;DHT22;6503;48.572;13.460;2022-10-30T11:49:18;19.30;99.90
12870;DHT22;6503;48.572;13.460;2022-10-30T11:52:10;19.30;99.90
12870;DHT22;6503;48.572;13.460;2022-10-30T11:55:24;19.50;99.90
12870;DHT22;6503;48.572;13.460;2022-10-30T12:09:01;20.30;99.90
12870;DHT22;6503;48.572;13.460;2022-10-30T12:15:41;20.60;99.90
12870;DHT22;6503;48.572;13.460;2022-10-30T12:18:54;20.90;99.90
12870;DHT22;6503;48.572;13.460;2022-10-30T12:42:14;21.70;99.90
12870;DHT22;6503;48.572;13.460;2022-10-30T12:44:45;21.80;99.90
12870;DHT22;6503;48.572;13.460;2022-10-30T12:47:22;21.90;99.90
12870;DHT22;6503;48.572;13.460;2022-10-30T12:49:52;22.00;99.90
12870;DHT22;6503;48.572;13.460;2022-10-30T12:52:25;22.10;99.90
12870;DHT22;6503;48.572;13.460;2022-10-30T12:54:59;22.10;99.90
12870;DHT22;6503;48.572;13.460;2022-10-30T12:57:36;22.10;99.90
12870;DHT22;6503;48.572;13.460;2022-10-30T13:00:11;22.20;99.90
12870;DHT22;6503;48.572;13.460;2022-10-30T13:02:46;22.20;99.90
12870;DHT22;6503;48.572;13.460;2022-10-30T13:05:35;22.20;99.90
12870;DHT22;6503;48.572;13.460;2022-10-30T13:08:19;22.10;99.90
12870;DHT22;6503;48.572;13.460;2022-10-30T13:10:54;22.20;99.90
12870;DHT22;6503;48.572;13.460;2022-10-30T13:13:34;22.20;99.90
12870;DHT22;6503;48.572;13.460;2022-10-30T13:16:09;22.10;99.90
12870;DHT22;6503;48.572;13.460;2022-10-30T13:18:38;21.90;99.90
12870;DHT22;6503;48.572;13.460;2022-10-30T13:21:19;21.70;99.90
12870;DHT22;6503;48.572;13.460;2022-10-30T13:23:51;21.50;99.90
12870;DHT22;6503;48.572;13.460;2022-10-30T13:26:30;21.30;99.90
12870;DHT22;6503;48.572;13.460;2022-10-30T13:29:08;21.20;99.90
12870;DHT22;6503;48.572;13.460;2022-10-30T13:31:47;21.10;99.90
12870;DHT22;6503;48.572;13.460;2022-10-30T13:34:32;21.00;99.90
12870;DHT22;6503;48.572;13.460;2022-10-30T13:37:07;20.90;99.90
12870;DHT22;6503;48.572;13.460;2022-10-30T13:39:41;20.70;99.90
12870;DHT22;6503;48.572;13.460;2022-10-30T13:42:42;20.70;99.90
12870;DHT22;6503;48.572;13.460;2022-10-30T13:45:27;20.70;99.90
12870;DHT22;6503;48.572;13.460;2022-10-30T13:48:03;20.70;99.90
12870;DHT22;6503;48.572;13.460;2022-10-30T13:50:43;20.60;99.90
12870;DHT22;6503;48.572;13.460;2022-10-30T13:53:19;20.60;99.90
12870;DHT22;6503;48.572;13.460;2022-10-30T13:55:50;20.50;99.90
12870;DHT22;6503;48.572;13.460;2022-10-30T13:58:22;20.50;99.90
12870;DHT22;6503;48.572;13.460;2022-10-30T14:00:59;20.40;99.90
12870;DHT22;6503;48.572;13.460;2022-10-30T14:03:37;20.50;99.90
12870;DHT22;6503;48.572;13.460;2022-10-30T14:06:13;20.30;99.90
12870;DHT22;6503;48.572;13.460;2022-10-30T14:08:52;20.30;99.90
12870;DHT22;6503;48.572;13.460;2022-10-30T14:11:23;20.20;99.90
12870;DHT22;6503;48.572;13.460;2022-10-30T14:13:53;20.20;99.90
12870;DHT22;6503;48.572;13.460;2022-10-30T14:16:41;20.20;99.90
12870;DHT22;6503;48.572;13.460;2022-10-30T14:19:09;20.20;99.90
12870;DHT22;6503;48.572;13.460;2022-10-30T14:21:49;20.10;99.90
12870;DHT22;6503;48.572;13.460;2022-10-30T14:24:18;20.10;99.90
12870;DHT22;6503;48.572;13.460;2022-10-30T14:26:52;20.00;99.90
12870;DHT22;6503;48.572;13.460;2022-10-30T14:29:46;19.90;99.90
12870;DHT22;6503;48.572;13.460;2022-10-30T14:35:37;19.90;99.90
12870;DHT22;6503;48.572;13.460;2022-10-30T14:38:28;19.70;99.90
12870;DHT22;6503;48.572;13.460;2022-10-30T14:44:24;19.40;99.90
12870;DHT22;6503;48.572;13.460;2022-10-30T14:47:04;19.30;99.90
12870;DHT22;6503;48.572;13.460;2022-10-30T14:49:40;19.20;99.90
12870;DHT22;6503;48.572;13.460;2022-10-30T14:52:21;19.00;99.90
12870;DHT22;6503;48.572;13.460;2022-10-30T14:54:58;18.90;99.90
12870;DHT22;6503;48.572;13.460;2022-10-30T14:57:45;18.70;99.90
12870;DHT22;6503;48.572;13.460;2022-10-30T15:00:43;18.60;99.90
12870;DHT22;6503;48.572;13.460;2022-10-30T15:03:17;18.50;99.90
12870;DHT22;6503;48.572;13.460;2022-10-30T15:05:50;18.40;99.90
12870;DHT22;6503;48.572;13.460;2022-10-30T15:11:34;18.20;99.90
12870;DHT22;6503;48.572;13.460;2022-10-30T15:14:07;18.00;99.90
12870;DHT22;6503;48.572;13.460;2022-10-30T15:16:37;17.90;99.90
12870;DHT22;6503;48.572;13.460;2022-10-30T15:19:07;17.80;99.90
12870;DHT22;6503;48.572;13.460;2022-10-30T15:21:44;17.70;99.90
12870;DHT22;6503;48.572;13.460;2022-10-30T15:24:15;17.60;99.90
12870;DHT22;6503;48.572;13.460;2022-10-30T15:26:46;17.50;99.90
12870;DHT22;6503;48.572;13.460;2022-10-30T15:29:26;17.50;99.90
12870;DHT22;6503;48.572;13.460;2022-10-30T15:31:57;17.40;99.90
12870;DHT22;6503;48.572;13.460;2022-10-30T15:34:26;17.40;99.90
12870;DHT22;6503;48.572;13.460;2022-10-30T15:36:53;17.20;99.90
12870;DHT22;6503;48.572;13.460;2022-10-30T15:39:34;17.10;99.90
12870;DHT22;6503;48.572;13.460;2022-10-30T15:42:17;17.00;99.90
12870;DHT22;6503;48.572;13.460;2022-10-30T15:44:47;16.90;99.90
12870;DHT22;6503;48.572;13.460;2022-10-30T15:47:17;16.80;99.90
12870;DHT22;6503;48.572;13.460;2022-10-30T15:49:49;16.70;99.90
12870;DHT22;6503;48.572;13.460;2022-10-30T15:52:28;16.70;99.90
12870;DHT22;6503;48.572;13.460;2022-10-30T15:55:03;16.50;99.90
12870;DHT22;6503;48.572;13.460;2022-10-30T15:57:41;16.40;99.90
12870;DHT22;6503;48.572;13.460;2022-10-30T16:00:21;16.30;99.90
12870;DHT22;6503;48.572;13.460;2022-10-30T16:02:58;16.20;99.90
12870;DHT22;6503;48.572;13.460;2022-10-30T16:05:33;16.10;99.90
12870;DHT22;6503;48.572;13.460;2022-10-30T16:08:01;16.00;99.90
12870;DHT22;6503;48.572;13.460;2022-10-30T16:23:16;15.60;99.90
12870;DHT22;6503;48.572;13.460;2022-10-30T16:26:30;15.50;99.90
12870;DHT22;6503;48.572;13.460;2022-10-30T16:29:43;15.40;99.90
12870;DHT22;6503;48.572;13.460;2022-10-30T16:32:45;15.30;99.90
12870;DHT22;6503;48.572;13.460;2022-10-30T18:31:43;13.00;99.90
12870;DHT22;6503;48.572;13.460;2022-10-30T18:35:04;12.90;99.90
12870;DHT22;6503;48.572;13.460;2022-10-30T18:38:44;12.80;99.90
12870;DHT22;6503;48.572;13.460;2022-10-30T19:15:28;12.50;99.90
12870;DHT22;6503;48.572;13.460;2022-10-30T19:18:11;12.50;99.90
12870;DHT22;6503;48.572;13.460;2022-10-30T19:20:43;12.50;99.90
12870;DHT22;6503;48.572;13.460;2022-10-30T19:23:17;12.50;99.90
12870;DHT22;6503;48.572;13.460;2022-10-30T19:25:45;12.50;99.90
12870;DHT22;6503;48.572;13.460;2022-10-30T19:28:24;12.50;99.90
12870;DHT22;6503;48.572;13.460;2022-10-30T19:58:38;12.20;99.90
12870;DHT22;6503;48.572;13.460;2022-10-30T20:01:54;12.20;99.90
12870;DHT22;6503;48.572;13.460;2022-10-30T20:28:09;11.80;99.90
